Wednesday, November 14, 2018, 8:59 PM EST
Back to Local

KSMQ, Somerville Somerset Airport

Location: Bedminster, NJ, United States Lat: 40.617
Local Time: 8:59 PM EST ( 1:59 GMT) Lon: -74.667
Time Zone: US/Eastern Elev: 104 ft

Show me the last for .
Show Decoded

2018-11-14 19:53 METAR KSMQ 150053Z AUTO 36006KT 10SM CLR 01/M09 A3053 RMK AO2 SLP343 T00111094 =
2018-11-14 18:53 METAR KSMQ 142353Z AUTO 36006KT 10SM CLR 02/M09 A3052 RMK AO2 SLP336 T00171094
                 10050 20017 51021 =
2018-11-14 17:53 METAR KSMQ 142253Z AUTO 36005KT 10SM CLR 02/M09 A3050 RMK AO2 SLP330 T00221089 =
2018-11-14 16:53 METAR KSMQ 142153Z AUTO 32007KT 10SM CLR 03/M11 A3048 RMK AO2 SLP324 T00281106 =
2018-11-14 15:53 METAR KSMQ 142053Z AUTO 32010KT 10SM CLR 03/M11 A3045 RMK AO2 SLP313 T00331111
                 53013 =
2018-11-14 14:53 METAR KSMQ 141953Z AUTO 32009KT 10SM CLR 04/M11 A3043 RMK AO2 SLP305 T00441106 =
2018-11-14 13:53 METAR KSMQ 141853Z AUTO 31011G15KT 10SM CLR 05/M10 A3042 RMK AO2 SLP302
                 T00501100 =
2018-11-14 12:53 METAR KSMQ 141753Z AUTO 34014G20KT 10SM CLR 04/M10 A3041 RMK AO2 SLP301
                 T00441100 10050 20022 52002 =
2018-11-14 11:53 METAR KSMQ 141653Z AUTO 32009G16KT 10SM CLR 05/M09 A3041 RMK AO2 SLP298
                 T00501089 =
2018-11-14 10:53 METAR KSMQ 141553Z AUTO 32008G21KT 10SM FEW060 04/M09 A3041 RMK AO2 SLP301
                 T00391094 =
2018-11-14 09:53 METAR KSMQ 141453Z AUTO 33012G19KT 10SM FEW050 03/M09 A3041 RMK AO2 SLP298
                 T00331089 51028 =
2018-11-14 08:53 METAR KSMQ 141353Z AUTO 32010G26KT 10SM CLR 03/M09 A3038 RMK AO2 PK WND
                 31026/1344 SLP288 T00281089 =
2018-11-14 07:53 METAR KSMQ 141253Z AUTO 33009G20KT 10SM CLR 02/M08 A3035 RMK AO2 SLP280
                 T00221078 =
2018-11-14 06:53 METAR KSMQ 141153Z AUTO 32006KT 10SM FEW050 02/M08 A3032 RMK AO2 SLP270 70017
                 T00221078 10050 20000 53033 =
2018-11-14 05:53 METAR KSMQ 141053Z AUTO VRB06KT 10SM SCT047 01/M03 A3029 RMK AO2 SLP258
                 T00061033 =
2018-11-14 04:53 METAR KSMQ 140953Z AUTO 00000KT 10SM FEW050 01/M03 A3025 RMK AO2 SLP245
                 T00061033 =
2018-11-14 03:53 METAR KSMQ 140853Z AUTO 32005KT 10SM CLR 03/M05 A3023 RMK AO2 SLP237 T00281050
                 51018 =
2018-11-14 02:53 METAR KSMQ 140753Z AUTO 00000KT 10SM BKN060 02/M04 A3021 RMK AO2 SLP231
                 T00221039 =
2018-11-14 01:53 METAR KSMQ 140653Z AUTO 35007G15KT 10SM FEW050 SCT060 04/M04 A3020 RMK AO2
                 SLP228 T00391044 =
2018-11-14 00:53 METAR KSMQ 140553Z AUTO 33006KT 10SM FEW039 OVC055 05/M03 A3017 RMK AO2 SLP219
                 T00501028 10067 20050 53023 =
2018-11-13 23:53 METAR KSMQ 140453Z AUTO 29006KT 10SM BKN040 OVC055 06/M01 A3013 RMK AO2 SLP205
                 T00561006 400940044 =
2018-11-13 22:53 METAR KSMQ 140353Z AUTO 00000KT 10SM CLR 05/M01 A3012 RMK AO2 SLP202 T00501006 =
2018-11-13 21:53 METAR KSMQ 140253Z AUTO VRB03KT 10SM CLR 06/00 A3011 RMK AO2 SLP196 T00560000
                 53023 =

Support USWX by starting your Amazon purchase here.